createdAt,value
2018-10-05T00:02:26.579Z,27.90
2018-10-05T00:04:55.771Z,27.67
2018-10-05T00:07:24.913Z,25.53
2018-10-05T00:09:54.321Z,24.23
2018-10-05T00:12:23.372Z,19.70
2018-10-05T00:14:52.553Z,19.83
2018-10-05T00:17:21.542Z,23.53
2018-10-05T00:19:51.033Z,23.80
2018-10-05T00:22:20.188Z,22.57
2018-10-05T00:24:49.286Z,24.03
2018-10-05T00:27:18.382Z,22.27
2018-10-05T00:29:47.677Z,19.83
2018-10-05T00:32:16.734Z,22.67
2018-10-05T00:34:45.910Z,20.93
2018-10-05T00:37:15.389Z,20.53
2018-10-05T00:39:44.522Z,18.40
2018-10-05T00:42:13.813Z,17.70
2018-10-05T00:44:42.992Z,16.30
2018-10-05T00:47:12.075Z,15.40
2018-10-05T00:49:41.146Z,14.37
2018-10-05T00:52:10.517Z,14.93
2018-10-05T00:54:39.542Z,15.00
2018-10-05T00:57:08.658Z,14.83
2018-10-05T00:59:37.788Z,14.97
2018-10-05T01:02:07.011Z,14.70
2018-10-05T01:04:36.083Z,16.13
2018-10-05T01:07:05.373Z,17.10
2018-10-05T01:09:34.481Z,18.27
2018-10-05T01:12:03.844Z,16.07
2018-10-05T01:14:32.873Z,16.57
2018-10-05T01:17:01.881Z,16.43
2018-10-05T01:19:30.922Z,17.27
2018-10-05T01:21:59.973Z,15.90
2018-10-05T01:24:29.117Z,16.60
2018-10-05T01:26:58.156Z,15.17
2018-10-05T01:29:27.211Z,14.20
2018-10-05T01:31:56.292Z,14.07
2018-10-05T01:34:25.455Z,13.37
2018-10-05T01:36:54.507Z,13.37
2018-10-05T01:39:23.546Z,13.37
2018-10-05T01:41:52.585Z,13.53
2018-10-05T01:44:21.708Z,12.73
2018-10-05T01:46:50.639Z,12.53
2018-10-05T01:49:19.839Z,11.70
2018-10-05T01:51:48.757Z,10.43
2018-10-05T01:54:17.832Z,10.90
2018-10-05T01:56:46.920Z,11.97
2018-10-05T01:59:16.244Z,11.83
2018-10-05T02:01:45.173Z,11.83
2018-10-05T02:04:14.334Z,11.83
2018-10-05T02:06:43.494Z,12.50
2018-10-05T02:09:12.565Z,10.93
2018-10-05T02:11:41.583Z,11.10
2018-10-05T02:14:10.715Z,11.37
2018-10-05T02:16:39.821Z,10.73
2018-10-05T02:19:09.009Z,11.60
2018-10-05T02:21:38.394Z,11.20
2018-10-05T02:24:08.466Z,11.77
2018-10-05T02:26:37.873Z,11.23
2018-10-05T02:29:06.945Z,9.83
2018-10-05T02:31:36.088Z,10.77
2018-10-05T02:34:05.156Z,10.23
2018-10-05T02:36:34.197Z,10.63
2018-10-05T02:39:03.363Z,11.37
2018-10-05T02:41:32.587Z,10.10
2018-10-05T02:44:01.672Z,11.20
2018-10-05T02:46:30.860Z,10.73
2018-10-05T02:49:00.045Z,10.07
2018-10-05T02:51:29.134Z,9.93
2018-10-05T02:53:58.264Z,9.10
2018-10-05T02:56:27.620Z,10.20
2018-10-05T02:58:56.703Z,10.40
2018-10-05T03:01:36.854Z,10.30
2018-10-05T03:04:05.864Z,10.87
2018-10-05T03:06:34.889Z,10.07
2018-10-05T03:09:05.369Z,9.83
2018-10-05T03:11:34.328Z,10.07
2018-10-05T03:14:03.457Z,9.07
2018-10-05T03:16:32.551Z,8.83
2018-10-05T03:19:01.729Z,9.10
2018-10-05T03:21:30.712Z,8.87
2018-10-05T03:23:59.827Z,9.00
2018-10-05T03:26:28.983Z,8.70
2018-10-05T03:28:58.804Z,8.90
2018-10-05T03:31:28.145Z,8.63
2018-10-05T03:33:57.224Z,8.80
2018-10-05T03:36:26.420Z,9.63
2018-10-05T03:38:55.941Z,8.93
2018-10-05T03:41:24.911Z,8.70
2018-10-05T03:43:53.931Z,8.93
2018-10-05T03:46:22.993Z,7.73
2018-10-05T03:48:51.992Z,8.67
2018-10-05T03:51:21.034Z,7.83
2018-10-05T03:53:50.469Z,8.27
2018-10-05T03:56:19.395Z,8.80
2018-10-05T03:58:48.333Z,9.43
2018-10-05T04:01:17.926Z,8.80
2018-10-05T04:03:47.056Z,8.07
2018-10-05T04:06:16.038Z,10.60
2018-10-05T04:08:45.206Z,8.87
2018-10-05T04:11:14.129Z,9.73
2018-10-05T04:13:43.114Z,10.63
2018-10-05T04:16:12.505Z,9.33
2018-10-05T04:18:41.676Z,9.83
2018-10-05T04:21:10.712Z,8.50
2018-10-05T04:23:40.165Z,9.30
2018-10-05T04:26:09.198Z,9.20
2018-10-05T04:28:38.256Z,9.77
2018-10-05T04:31:07.319Z,10.23
2018-10-05T04:33:36.531Z,9.40
2018-10-05T04:36:05.595Z,9.37
2018-10-05T04:38:34.798Z,10.07
2018-10-05T04:41:03.849Z,11.30
2018-10-05T04:43:32.797Z,13.77
2018-10-05T04:46:02.224Z,10.93
2018-10-05T04:48:31.391Z,10.10
2018-10-05T04:51:00.489Z,8.30
2018-10-05T04:53:29.851Z,8.43
2018-10-05T04:55:58.777Z,9.40
2018-10-05T04:58:27.713Z,9.77
2018-10-05T05:00:56.945Z,10.00
2018-10-05T05:03:25.899Z,11.30
2018-10-05T05:12:40.266Z,9.60
2018-10-05T05:15:09.174Z,11.07
2018-10-05T05:17:38.003Z,10.87
2018-10-05T05:20:07.217Z,11.17
2018-10-05T05:22:36.338Z,9.97
2018-10-05T05:25:05.392Z,9.33
2018-10-05T05:27:34.815Z,9.13
2018-10-05T05:30:03.990Z,9.90
2018-10-05T05:32:33.100Z,8.97
2018-10-05T05:35:02.118Z,9.40
2018-10-05T05:37:30.908Z,9.53
2018-10-05T05:39:59.745Z,8.93
2018-10-05T05:42:28.627Z,9.83
2018-10-05T05:44:57.407Z,9.60
2018-10-05T05:47:26.448Z,10.07
2018-10-05T05:49:55.484Z,9.30
2018-10-05T05:52:24.363Z,9.30
2018-10-05T05:54:53.276Z,8.93
2018-10-05T05:57:22.673Z,9.67
2018-10-05T05:59:51.545Z,9.47
2018-10-05T06:02:20.473Z,8.97
2018-10-05T06:04:49.512Z,8.13
2018-10-05T06:07:18.540Z,8.50
2018-10-05T06:09:47.491Z,7.30
2018-10-05T06:12:16.560Z,7.80
2018-10-05T06:14:45.465Z,7.37
2018-10-05T06:17:14.469Z,6.37
2018-10-05T06:19:43.477Z,6.00
2018-10-05T06:22:13.814Z,6.63
2018-10-05T06:24:42.604Z,6.40
2018-10-05T06:27:11.843Z,6.80
2018-10-05T06:29:40.914Z,6.80
2018-10-05T06:32:09.712Z,6.30
2018-10-05T06:34:38.789Z,5.60
2018-10-05T06:37:07.787Z,6.37
2018-10-05T06:39:36.721Z,6.83
2018-10-05T06:42:05.931Z,6.73
2018-10-05T06:44:34.893Z,6.00
2018-10-05T06:47:03.920Z,6.23
2018-10-05T06:49:33.036Z,6.07
2018-10-05T06:52:02.159Z,7.10
2018-10-05T06:54:31.113Z,6.17
2018-10-05T06:57:00.521Z,6.10
2018-10-05T06:59:29.430Z,6.97
2018-10-05T07:01:58.465Z,6.03
2018-10-05T07:04:27.432Z,6.83
2018-10-05T07:06:56.397Z,6.20
2018-10-05T07:09:25.471Z,6.40
2018-10-05T07:11:54.694Z,7.87
2018-10-05T07:14:23.681Z,5.77
2018-10-05T07:16:52.681Z,6.47
2018-10-05T07:19:22.124Z,6.53
2018-10-05T07:21:51.008Z,7.30
2018-10-05T07:24:19.909Z,6.13
2018-10-05T07:26:48.816Z,6.30
2018-10-05T07:29:17.668Z,5.83
2018-10-05T07:31:46.560Z,6.67
2018-10-05T07:34:15.863Z,7.00
2018-10-05T07:36:44.882Z,6.83
2018-10-05T07:39:13.760Z,6.60
2018-10-05T07:41:42.705Z,7.27
2018-10-05T07:44:11.567Z,6.90
2018-10-05T07:46:40.471Z,7.67
2018-10-05T07:49:09.793Z,7.70
2018-10-05T07:51:38.749Z,8.70
2018-10-05T07:54:07.661Z,7.70
2018-10-05T07:56:36.707Z,8.10
2018-10-05T07:59:05.704Z,8.00
2018-10-05T08:01:34.733Z,7.67
2018-10-05T08:04:03.684Z,7.60
2018-10-05T08:06:32.680Z,8.17
2018-10-05T08:09:01.531Z,7.63
2018-10-05T08:11:30.406Z,6.97
2018-10-05T08:13:59.222Z,7.23
2018-10-05T08:16:28.088Z,7.83
2018-10-05T08:18:57.003Z,6.97
2018-10-05T08:21:26.042Z,7.43
2018-10-05T08:23:54.970Z,6.73
2018-10-05T08:26:23.975Z,7.33
2018-10-05T08:28:52.981Z,7.77
2018-10-05T08:31:22.174Z,6.63
2018-10-05T08:33:51.110Z,6.43
2018-10-05T08:36:20.140Z,6.47
2018-10-05T08:38:49.150Z,8.87
2018-10-05T08:41:18.738Z,7.73
2018-10-05T08:43:47.618Z,7.97
2018-10-05T08:46:16.637Z,7.70
2018-10-05T08:48:45.743Z,5.40
2018-10-05T08:51:14.818Z,5.67
2018-10-05T08:53:43.856Z,5.67
2018-10-05T08:56:12.869Z,6.10
2018-10-05T08:58:41.732Z,6.23
2018-10-05T09:01:10.662Z,5.77
2018-10-05T09:03:39.805Z,5.67
2018-10-05T09:06:08.763Z,5.60
2018-10-05T09:08:37.741Z,5.33
2018-10-05T09:11:06.688Z,5.57
2018-10-05T09:13:35.548Z,5.93
2018-10-05T09:16:04.481Z,6.20
2018-10-05T09:18:33.681Z,6.10
2018-10-05T09:21:02.587Z,7.10
2018-10-05T09:23:31.614Z,6.03
2018-10-05T09:26:00.908Z,6.33
2018-10-05T09:28:29.724Z,6.13
2018-10-05T09:30:58.756Z,5.80
2018-10-05T09:33:27.967Z,5.93
2018-10-05T09:35:56.929Z,6.67
2018-10-05T09:38:25.824Z,6.43
2018-10-05T09:40:54.801Z,5.93
2018-10-05T09:43:23.824Z,5.97
2018-10-05T09:45:52.800Z,5.83
2018-10-05T09:48:21.695Z,5.93
2018-10-05T09:50:50.499Z,5.73
2018-10-05T09:53:19.482Z,5.53
2018-10-05T09:55:48.792Z,6.43
2018-10-05T09:58:17.793Z,8.00
2018-10-05T10:00:51.891Z,5.90
2018-10-05T10:03:25.943Z,5.20
2018-10-05T10:05:54.888Z,5.10
2018-10-05T10:08:23.952Z,5.87
2018-10-05T10:10:53.101Z,5.17
2018-10-05T10:13:22.908Z,5.53
2018-10-05T10:15:51.834Z,5.43
2018-10-05T10:18:21.005Z,4.60
2018-10-05T10:20:50.096Z,5.43
2018-10-05T10:23:19.189Z,5.77
2018-10-05T10:25:48.080Z,5.90
2018-10-05T10:28:17.546Z,5.50
2018-10-05T10:30:50.814Z,5.53
2018-10-05T10:33:19.862Z,5.83
2018-10-05T10:35:48.808Z,5.30
2018-10-05T10:38:17.835Z,4.67
2018-10-05T10:40:47.562Z,5.37
2018-10-05T10:43:16.581Z,4.60
2018-10-05T10:45:46.303Z,5.40
2018-10-05T10:48:15.983Z,5.87
2018-10-05T10:50:44.820Z,5.50
2018-10-05T10:53:14.878Z,7.30
2018-10-05T10:55:44.185Z,5.90
2018-10-05T10:58:13.245Z,5.50
2018-10-05T11:00:42.308Z,6.37
2018-10-05T11:03:11.862Z,6.87
2018-10-05T11:05:40.907Z,6.47
2018-10-05T11:08:10.018Z,5.73
2018-10-05T11:10:39.676Z,5.10
2018-10-05T11:13:08.797Z,5.60
2018-10-05T11:15:37.831Z,5.20
2018-10-05T11:18:07.289Z,6.43
2018-10-05T11:20:36.219Z,4.77
2018-10-05T11:23:05.299Z,5.80
2018-10-05T11:25:34.608Z,5.27
2018-10-05T11:28:03.624Z,4.40
2018-10-05T11:30:32.666Z,4.77
2018-10-05T11:33:02.025Z,4.80
2018-10-05T11:35:32.650Z,5.20
2018-10-05T11:38:13.943Z,5.00
2018-10-05T11:40:43.236Z,4.90
2018-10-05T11:43:12.469Z,5.03
2018-10-05T11:45:41.478Z,4.83
2018-10-05T11:48:10.537Z,5.17
2018-10-05T11:50:39.869Z,4.57
2018-10-05T11:53:08.932Z,4.90
2018-10-05T11:55:37.818Z,4.97
2018-10-05T11:58:09.690Z,4.73
2018-10-05T12:00:40.915Z,5.00
2018-10-05T12:03:12.353Z,4.80
2018-10-05T12:05:42.167Z,5.10
2018-10-05T12:08:13.790Z,5.57
2018-10-05T12:10:44.871Z,5.13
2018-10-05T12:13:13.962Z,4.50
2018-10-05T12:15:42.927Z,4.67
2018-10-05T12:18:12.056Z,4.70
2018-10-05T12:20:41.316Z,4.90
2018-10-05T12:23:10.383Z,4.67
2018-10-05T12:25:39.470Z,4.60
2018-10-05T12:28:08.558Z,4.23
2018-10-05T12:30:37.634Z,4.60
2018-10-05T12:33:06.867Z,4.70
2018-10-05T12:35:36.128Z,5.37
2018-10-05T12:38:05.281Z,5.60
2018-10-05T12:40:34.284Z,4.70
2018-10-05T12:43:03.855Z,4.80
2018-10-05T12:45:32.883Z,4.50
2018-10-05T12:48:01.920Z,4.23
2018-10-05T12:50:31.044Z,4.80
2018-10-05T12:53:00.097Z,4.70
2018-10-05T12:55:29.275Z,4.60
2018-10-05T12:57:58.426Z,4.50
2018-10-05T13:00:27.388Z,4.07
2018-10-05T13:02:56.496Z,4.97
2018-10-05T13:05:26.610Z,5.37
2018-10-05T13:07:55.792Z,4.07
2018-10-05T13:10:24.717Z,3.67
2018-10-05T13:12:53.727Z,3.93
2018-10-05T13:15:22.817Z,3.93
2018-10-05T13:17:51.856Z,3.40
2018-10-05T13:20:21.279Z,4.40
2018-10-05T13:22:51.095Z,3.53
2018-10-05T13:25:20.207Z,3.70
2018-10-05T13:27:49.762Z,3.60
2018-10-05T13:30:18.762Z,3.20
2018-10-05T13:32:47.832Z,3.47
2018-10-05T13:35:17.253Z,4.23
2018-10-05T13:37:46.269Z,3.43
2018-10-05T13:40:15.261Z,3.63
2018-10-05T13:42:44.654Z,3.80
2018-10-05T13:45:13.752Z,3.33
2018-10-05T13:47:42.709Z,3.20
2018-10-05T13:50:13.455Z,3.53
2018-10-05T13:52:42.403Z,4.10
2018-10-05T13:55:11.748Z,3.17
2018-10-05T13:57:40.827Z,3.30
2018-10-05T14:00:09.981Z,3.50
2018-10-05T14:02:38.953Z,3.50
2018-10-05T14:05:08.025Z,3.90
2018-10-05T14:07:36.915Z,3.70
2018-10-05T14:10:06.102Z,3.47
2018-10-05T14:12:35.289Z,3.90
2018-10-05T14:15:04.296Z,3.83
2018-10-05T14:17:33.191Z,3.80
2018-10-05T14:20:02.209Z,4.00
2018-10-05T14:22:31.294Z,3.77
2018-10-05T14:25:00.123Z,4.10
2018-10-05T14:27:29.087Z,4.23
2018-10-05T14:29:58.391Z,3.50
2018-10-05T14:32:27.321Z,4.07
2018-10-05T14:34:56.449Z,3.60
2018-10-05T14:37:25.484Z,4.73
2018-10-05T14:39:54.385Z,4.13
2018-10-05T14:42:23.736Z,3.50
2018-10-05T14:44:52.979Z,4.40
2018-10-05T14:47:22.637Z,4.17
2018-10-05T14:49:51.997Z,3.87
2018-10-05T14:52:24.026Z,4.07
2018-10-05T14:54:54.430Z,4.17
2018-10-05T14:57:23.854Z,4.47
2018-10-05T14:59:54.037Z,6.57
2018-10-05T15:02:23.150Z,5.20
2018-10-05T15:04:56.258Z,4.73
2018-10-05T15:07:33.976Z,4.60
2018-10-05T15:10:04.199Z,4.60
2018-10-05T15:12:33.392Z,4.57
2018-10-05T15:15:02.381Z,5.13
2018-10-05T15:17:31.355Z,4.67
2018-10-05T15:20:00.365Z,5.37
2018-10-05T15:22:29.400Z,5.30
2018-10-05T15:24:58.927Z,4.87
2018-10-05T15:27:28.488Z,5.43
2018-10-05T15:29:57.435Z,4.60
2018-10-05T15:32:26.634Z,4.10
2018-10-05T15:34:55.659Z,6.43
2018-10-05T15:37:24.937Z,4.77
2018-10-05T15:39:54.452Z,5.20
2018-10-05T15:42:23.504Z,4.70
2018-10-05T15:44:52.571Z,4.20
2018-10-05T15:47:21.809Z,4.93
2018-10-05T15:49:50.705Z,4.87
2018-10-05T15:52:19.666Z,5.30
2018-10-05T15:54:49.066Z,4.97
2018-10-05T15:57:18.060Z,5.27
2018-10-05T15:59:47.040Z,4.87
2018-10-05T16:02:15.983Z,5.33
2018-10-05T16:04:44.825Z,5.27
2018-10-05T16:07:13.749Z,5.30
2018-10-05T16:09:43.208Z,5.67
2018-10-05T16:12:12.131Z,5.50
2018-10-05T16:14:41.200Z,4.43
2018-10-05T16:17:10.485Z,5.30
2018-10-05T16:19:39.384Z,4.57
2018-10-05T16:22:08.385Z,5.33
2018-10-05T16:24:40.580Z,5.87
2018-10-05T16:27:10.242Z,5.93
2018-10-05T16:29:39.441Z,5.67
2018-10-05T16:32:10.584Z,6.20
2018-10-05T16:34:39.551Z,7.30
2018-10-05T16:37:08.629Z,6.30
2018-10-05T16:39:38.022Z,7.13
2018-10-05T16:42:06.986Z,7.80
2018-10-05T16:44:35.861Z,8.20
2018-10-05T16:47:05.101Z,8.37
2018-10-05T16:49:34.150Z,8.47
2018-10-05T16:52:03.359Z,9.77
2018-10-05T16:54:33.126Z,10.03
2018-10-05T16:57:02.965Z,8.90
2018-10-05T16:59:32.009Z,9.37
2018-10-05T17:02:01.274Z,8.13
2018-10-05T17:04:30.209Z,7.83
2018-10-05T17:06:59.324Z,7.77
2018-10-05T17:09:28.346Z,9.37
2018-10-05T17:11:57.322Z,10.17
2018-10-05T17:14:26.420Z,9.80
2018-10-05T17:16:55.451Z,10.57
2018-10-05T17:19:24.493Z,12.87
2018-10-05T17:21:54.485Z,16.50
2018-10-05T17:24:23.823Z,16.27
2018-10-05T17:26:52.877Z,17.27
2018-10-05T17:29:22.253Z,19.30
2018-10-05T17:31:51.579Z,20.53
2018-10-05T17:34:20.557Z,23.97
2018-10-05T17:36:49.662Z,21.70
2018-10-05T17:39:19.058Z,19.00
2018-10-05T17:41:48.047Z,19.77
2018-10-05T17:44:17.093Z,19.73
2018-10-05T17:46:46.245Z,19.43
2018-10-05T17:49:15.291Z,17.90
2018-10-05T17:51:44.461Z,17.90
2018-10-05T17:54:13.561Z,18.77
2018-10-05T17:56:42.769Z,17.87
2018-10-05T17:59:11.934Z,19.43
2018-10-05T18:01:40.999Z,19.13
2018-10-05T18:04:10.457Z,18.07
2018-10-05T18:06:40.013Z,19.40
2018-10-05T18:09:09.034Z,23.67
2018-10-05T18:11:38.720Z,21.87
2018-10-05T18:14:07.735Z,18.73
2018-10-05T18:16:36.839Z,18.97
2018-10-05T18:19:06.788Z,19.33
2018-10-05T18:21:35.902Z,21.00
2018-10-05T18:24:05.446Z,18.07
2018-10-05T18:26:34.894Z,17.37
2018-10-05T18:29:03.996Z,14.53
2018-10-05T18:31:33.020Z,13.57
2018-10-05T18:34:02.465Z,15.60
2018-10-05T18:36:32.393Z,17.13
2018-10-05T18:39:01.449Z,15.47
2018-10-05T18:41:35.183Z,14.93
2018-10-05T18:44:04.343Z,14.80
2018-10-05T18:46:33.560Z,14.83
2018-10-05T18:49:04.066Z,13.77
2018-10-05T18:51:33.105Z,13.27
2018-10-05T18:54:02.645Z,14.50
2018-10-05T18:56:42.715Z,15.03
2018-10-05T18:59:11.700Z,15.33
2018-10-05T19:01:40.934Z,15.60
2018-10-05T19:04:10.230Z,14.57
2018-10-05T19:06:39.407Z,14.73
2018-10-05T19:09:09.033Z,14.30
2018-10-05T19:11:38.494Z,14.20
2018-10-05T19:14:07.572Z,14.73
2018-10-05T19:16:36.565Z,13.77
2018-10-05T19:19:06.824Z,13.93
2018-10-05T19:21:36.285Z,14.40
2018-10-05T19:24:05.297Z,15.00
2018-10-05T19:26:34.629Z,13.30
2018-10-05T19:29:03.953Z,14.67
2018-10-05T19:31:32.957Z,13.83
2018-10-05T19:34:02.346Z,12.33
2018-10-05T19:36:31.297Z,13.23
2018-10-05T19:39:00.348Z,12.90
2018-10-05T19:41:29.492Z,13.63
2018-10-05T19:43:58.432Z,12.60
2018-10-05T19:46:27.443Z,14.97
2018-10-05T19:48:56.348Z,15.53
2018-10-05T19:51:25.456Z,17.10
2018-10-05T19:53:54.369Z,16.60
2018-10-05T19:56:23.408Z,15.80
2018-10-05T19:58:52.483Z,15.77
2018-10-05T20:01:21.708Z,17.97
2018-10-05T20:03:50.776Z,16.20
2018-10-05T20:06:19.896Z,16.93
2018-10-05T20:08:49.025Z,18.43
2018-10-05T20:11:18.385Z,18.07
2018-10-05T20:13:47.383Z,16.67
2018-10-05T20:16:16.410Z,16.37
2018-10-05T20:18:45.404Z,17.50
2018-10-05T20:21:14.441Z,18.67
2018-10-05T20:23:43.520Z,18.10
2018-10-05T20:26:12.611Z,16.70
2018-10-05T20:28:41.666Z,18.47
2018-10-05T20:31:10.568Z,17.30
2018-10-05T20:33:39.999Z,16.23
2018-10-05T20:36:09.085Z,16.67
2018-10-05T20:38:38.222Z,17.40
2018-10-05T20:41:07.188Z,16.20
2018-10-05T20:43:36.511Z,17.27
2018-10-05T20:46:05.668Z,17.83
2018-10-05T20:48:35.179Z,16.93
2018-10-05T20:51:04.198Z,16.67
2018-10-05T20:53:33.255Z,15.97
2018-10-05T20:56:02.869Z,16.43
2018-10-05T20:58:31.970Z,15.80
2018-10-05T21:01:01.001Z,16.70
2018-10-05T21:03:30.042Z,16.33
2018-10-05T21:05:59.290Z,16.20
2018-10-05T21:08:28.569Z,16.07
2018-10-05T21:10:58.020Z,15.80
2018-10-05T21:13:27.038Z,15.23
2018-10-05T21:15:56.021Z,15.43
2018-10-05T21:18:25.305Z,16.13
2018-10-05T21:20:54.320Z,14.87
2018-10-05T21:23:23.292Z,15.03
2018-10-05T21:25:52.526Z,15.40
2018-10-05T21:28:21.594Z,16.73
2018-10-05T21:30:50.702Z,22.63
2018-10-05T21:33:19.849Z,20.00
2018-10-05T21:35:48.735Z,19.70
2018-10-05T21:38:17.783Z,16.60
2018-10-05T21:40:46.825Z,19.57
2018-10-05T21:43:16.032Z,18.70
2018-10-05T21:45:44.949Z,18.37
2018-10-05T21:48:13.965Z,16.43
2018-10-05T21:50:43.002Z,16.23
2018-10-05T21:53:12.006Z,16.47
2018-10-05T21:55:41.137Z,18.47
2018-10-05T21:58:10.168Z,15.80
2018-10-05T22:00:39.987Z,11.87
2018-10-05T22:03:09.578Z,13.57
2018-10-05T22:05:38.865Z,13.13
2018-10-05T22:08:07.856Z,14.43
2018-10-05T22:10:36.861Z,11.47
2018-10-05T22:13:05.819Z,12.13
2018-10-05T22:15:34.948Z,11.53
2018-10-05T22:18:04.351Z,13.37
2018-10-05T22:20:33.300Z,12.97
2018-10-05T22:23:02.379Z,10.30
2018-10-05T22:25:31.370Z,11.53
2018-10-05T22:28:00.352Z,10.80
2018-10-05T22:30:29.344Z,11.90
2018-10-05T22:32:58.450Z,11.70
2018-10-05T22:35:27.473Z,12.00
2018-10-05T22:37:56.912Z,11.53
2018-10-05T22:40:26.185Z,10.97
2018-10-05T22:42:55.274Z,11.37
2018-10-05T22:45:24.200Z,11.27
2018-10-05T22:47:53.467Z,11.37
2018-10-05T22:50:22.506Z,11.80
2018-10-05T22:52:51.506Z,12.20
2018-10-05T22:55:20.835Z,11.83
2018-10-05T22:57:49.962Z,12.10
2018-10-05T23:00:19.008Z,12.47
2018-10-05T23:02:48.425Z,13.27
2018-10-05T23:05:17.451Z,13.47
2018-10-05T23:07:46.468Z,14.37
2018-10-05T23:10:15.757Z,13.50
2018-10-05T23:12:44.953Z,13.53
2018-10-05T23:15:13.870Z,13.17
2018-10-05T23:17:42.891Z,12.80
2018-10-05T23:20:11.845Z,14.10
2018-10-05T23:22:40.900Z,14.20
2018-10-05T23:25:09.951Z,12.77
2018-10-05T23:27:39.000Z,12.53
2018-10-05T23:30:08.161Z,13.57
2018-10-05T23:32:37.399Z,13.03
2018-10-05T23:35:06.632Z,12.83
2018-10-05T23:37:35.648Z,12.17
2018-10-05T23:40:05.089Z,12.07
2018-10-05T23:42:34.177Z,12.60
2018-10-05T23:45:03.256Z,12.63
2018-10-05T23:47:32.886Z,13.27
2018-10-05T23:50:01.852Z,13.60
2018-10-05T23:52:45.024Z,12.47
2018-10-05T23:55:14.059Z,11.83
2018-10-05T23:57:43.563Z,12.63
